sensor_id;sensor_type;location;lat;lon;timestamp;temperature;humidity
48946;DHT22;34999;50.940;3.998;2023-04-08T00:01:48;8.10;99.90
48946;DHT22;34999;50.940;3.998;2023-04-08T00:04:16;8.10;99.90
48946;DHT22;34999;50.940;3.998;2023-04-08T00:06:45;8.10;99.90
48946;DHT22;34999;50.940;3.998;2023-04-08T00:09:13;8.10;99.90
48946;DHT22;34999;50.940;3.998;2023-04-08T00:11:41;8.10;99.90
48946;DHT22;34999;50.940;3.998;2023-04-08T00:14:09;8.10;99.90
48946;DHT22;34999;50.940;3.998;2023-04-08T00:16:38;8.10;99.90
48946;DHT22;34999;50.940;3.998;2023-04-08T00:19:07;8.10;99.90
48946;DHT22;34999;50.940;3.998;2023-04-08T00:21:36;8.00;99.90
48946;DHT22;34999;50.940;3.998;2023-04-08T00:24:04;8.00;99.90
48946;DHT22;34999;50.940;3.998;2023-04-08T00:26:32;8.00;99.90
48946;DHT22;34999;50.940;3.998;2023-04-08T00:29:01;8.00;99.90
48946;DHT22;34999;50.940;3.998;2023-04-08T00:31:29;8.00;99.90
48946;DHT22;34999;50.940;3.998;2023-04-08T00:33:57;8.00;99.90
48946;DHT22;34999;50.940;3.998;2023-04-08T00:36:27;8.00;99.90
48946;DHT22;34999;50.940;3.998;2023-04-08T00:38:55;8.00;99.90
48946;DHT22;34999;50.940;3.998;2023-04-08T00:41:23;8.00;99.90
48946;DHT22;34999;50.940;3.998;2023-04-08T00:43:52;8.00;99.90
48946;DHT22;34999;50.940;3.998;2023-04-08T00:46:21;8.00;99.90
48946;DHT22;34999;50.940;3.998;2023-04-08T00:48:49;8.00;99.90
48946;DHT22;34999;50.940;3.998;2023-04-08T00:51:18;8.00;99.90
48946;DHT22;34999;50.940;3.998;2023-04-08T00:53:48;8.00;99.90
48946;DHT22;34999;50.940;3.998;2023-04-08T00:56:17;8.00;99.90
48946;DHT22;34999;50.940;3.998;2023-04-08T00:58:45;8.00;99.90
48946;DHT22;34999;50.940;3.998;2023-04-08T01:01:19;8.00;99.90
48946;DHT22;34999;50.940;3.998;2023-04-08T01:03:56;8.00;99.90
48946;DHT22;34999;50.940;3.998;2023-04-08T01:06:31;8.00;99.90
48946;DHT22;34999;50.940;3.998;2023-04-08T01:09:04;8.00;99.90
48946;DHT22;34999;50.940;3.998;2023-04-08T01:11:33;8.00;99.90
48946;DHT22;34999;50.940;3.998;2023-04-08T01:14:04;7.90;99.90
48946;DHT22;34999;50.940;3.998;2023-04-08T01:16:34;7.90;99.90
48946;DHT22;34999;50.940;3.998;2023-04-08T01:19:05;7.90;99.90
48946;DHT22;34999;50.940;3.998;2023-04-08T01:21:36;7.90;99.90
48946;DHT22;34999;50.940;3.998;2023-04-08T01:24:12;7.90;99.90
48946;DHT22;34999;50.940;3.998;2023-04-08T01:26:45;7.90;99.90
48946;DHT22;34999;50.940;3.998;2023-04-08T01:29:14;7.90;99.90
48946;DHT22;34999;50.940;3.998;2023-04-08T01:31:43;7.90;99.90
48946;DHT22;34999;50.940;3.998;2023-04-08T01:34:13;7.90;99.90
48946;DHT22;34999;50.940;3.998;2023-04-08T01:36:43;7.90;99.90
48946;DHT22;34999;50.940;3.998;2023-04-08T01:39:13;7.90;99.90
48946;DHT22;34999;50.940;3.998;2023-04-08T01:41:43;7.90;99.90
48946;DHT22;34999;50.940;3.998;2023-04-08T01:44:13;7.90;99.90
48946;DHT22;34999;50.940;3.998;2023-04-08T01:46:42;7.90;99.90
48946;DHT22;34999;50.940;3.998;2023-04-08T01:49:11;7.90;99.90
48946;DHT22;34999;50.940;3.998;2023-04-08T01:51:40;7.90;99.90
48946;DHT22;34999;50.940;3.998;2023-04-08T01:54:08;7.90;99.90
48946;DHT22;34999;50.940;3.998;2023-04-08T01:56:39;7.90;99.90
48946;DHT22;34999;50.940;3.998;2023-04-08T01:59:11;7.80;99.90
48946;DHT22;34999;50.940;3.998;2023-04-08T02:01:43;7.90;99.90
48946;DHT22;34999;50.940;3.998;2023-04-08T02:04:12;7.90;99.90
48946;DHT22;34999;50.940;3.998;2023-04-08T02:06:41;7.80;99.90
48946;DHT22;34999;50.940;3.998;2023-04-08T02:09:09;7.80;99.90
48946;DHT22;34999;50.940;3.998;2023-04-08T02:11:38;7.80;99.90
48946;DHT22;34999;50.940;3.998;2023-04-08T02:14:06;7.80;99.90
48946;DHT22;34999;50.940;3.998;2023-04-08T02:16:38;7.80;99.90
48946;DHT22;34999;50.940;3.998;2023-04-08T02:19:14;7.80;99.90
48946;DHT22;34999;50.940;3.998;2023-04-08T02:21:47;7.80;99.90
48946;DHT22;34999;50.940;3.998;2023-04-08T02:24:17;7.80;99.90
48946;DHT22;34999;50.940;3.998;2023-04-08T02:26:48;7.80;99.90
48946;DHT22;34999;50.940;3.998;2023-04-08T02:29:18;7.80;99.90
48946;DHT22;34999;50.940;3.998;2023-04-08T02:31:46;7.80;99.90
48946;DHT22;34999;50.940;3.998;2023-04-08T02:34:17;7.80;99.90
48946;DHT22;34999;50.940;3.998;2023-04-08T02:36:48;7.80;99.90
48946;DHT22;34999;50.940;3.998;2023-04-08T02:39:17;7.80;99.90
48946;DHT22;34999;50.940;3.998;2023-04-08T02:41:45;7.80;99.90
48946;DHT22;34999;50.940;3.998;2023-04-08T02:44:13;7.80;99.90
48946;DHT22;34999;50.940;3.998;2023-04-08T02:46:41;7.80;99.90
48946;DHT22;34999;50.940;3.998;2023-04-08T02:49:09;7.70;99.90
48946;DHT22;34999;50.940;3.998;2023-04-08T02:51:39;7.70;99.90
48946;DHT22;34999;50.940;3.998;2023-04-08T02:54:07;7.70;99.90
48946;DHT22;34999;50.940;3.998;2023-04-08T02:56:35;7.70;99.90
48946;DHT22;34999;50.940;3.998;2023-04-08T02:59:03;7.70;99.90
48946;DHT22;34999;50.940;3.998;2023-04-08T03:01:31;7.70;99.90
48946;DHT22;34999;50.940;3.998;2023-04-08T03:04:00;7.70;99.90
48946;DHT22;34999;50.940;3.998;2023-04-08T03:06:28;7.70;99.90
48946;DHT22;34999;50.940;3.998;2023-04-08T03:08:58;7.70;99.90
48946;DHT22;34999;50.940;3.998;2023-04-08T03:11:26;7.70;99.90
48946;DHT22;34999;50.940;3.998;2023-04-08T03:13:55;7.70;99.90
48946;DHT22;34999;50.940;3.998;2023-04-08T03:16:23;7.70;99.90
48946;DHT22;34999;50.940;3.998;2023-04-08T03:18:51;7.70;99.90
48946;DHT22;34999;50.940;3.998;2023-04-08T03:21:20;7.70;99.90
48946;DHT22;34999;50.940;3.998;2023-04-08T03:23:48;7.70;99.90
48946;DHT22;34999;50.940;3.998;2023-04-08T03:26:17;7.70;99.90
48946;DHT22;34999;50.940;3.998;2023-04-08T03:28:46;7.70;99.90
48946;DHT22;34999;50.940;3.998;2023-04-08T03:31:14;7.70;99.90
48946;DHT22;34999;50.940;3.998;2023-04-08T03:33:43;7.70;99.90
48946;DHT22;34999;50.940;3.998;2023-04-08T03:36:11;7.70;99.90
48946;DHT22;34999;50.940;3.998;2023-04-08T03:38:40;7.70;99.90
48946;DHT22;34999;50.940;3.998;2023-04-08T03:41:08;7.70;99.90
48946;DHT22;34999;50.940;3.998;2023-04-08T03:43:37;7.70;99.90
48946;DHT22;34999;50.940;3.998;2023-04-08T03:46:06;7.70;99.90
48946;DHT22;34999;50.940;3.998;2023-04-08T03:48:34;7.70;99.90
48946;DHT22;34999;50.940;3.998;2023-04-08T03:51:02;7.70;99.90
48946;DHT22;34999;50.940;3.998;2023-04-08T03:53:30;7.70;99.90
48946;DHT22;34999;50.940;3.998;2023-04-08T03:55:59;7.70;99.90
48946;DHT22;34999;50.940;3.998;2023-04-08T03:58:28;7.70;99.90
48946;DHT22;34999;50.940;3.998;2023-04-08T04:00:59;7.70;99.90
48946;DHT22;34999;50.940;3.998;2023-04-08T04:03:27;7.70;99.90
48946;DHT22;34999;50.940;3.998;2023-04-08T04:05:56;7.70;99.90
48946;DHT22;34999;50.940;3.998;2023-04-08T04:08:24;7.70;99.90
48946;DHT22;34999;50.940;3.998;2023-04-08T04:10:52;7.70;99.90
48946;DHT22;34999;50.940;3.998;2023-04-08T04:13:20;7.70;99.90
48946;DHT22;34999;50.940;3.998;2023-04-08T04:15:49;7.70;99.90
48946;DHT22;34999;50.940;3.998;2023-04-08T04:18:19;7.70;99.90
48946;DHT22;34999;50.940;3.998;2023-04-08T04:20:47;7.70;99.90
48946;DHT22;34999;50.940;3.998;2023-04-08T04:23:15;7.70;99.90
48946;DHT22;34999;50.940;3.998;2023-04-08T04:25:43;7.70;99.90
48946;DHT22;34999;50.940;3.998;2023-04-08T04:28:12;7.70;99.90
48946;DHT22;34999;50.940;3.998;2023-04-08T04:30:40;7.70;99.90
48946;DHT22;34999;50.940;3.998;2023-04-08T04:33:08;7.70;99.90
48946;DHT22;34999;50.940;3.998;2023-04-08T04:35:38;7.70;99.90
48946;DHT22;34999;50.940;3.998;2023-04-08T04:38:06;7.70;99.90
48946;DHT22;34999;50.940;3.998;2023-04-08T04:40:38;7.70;99.90
48946;DHT22;34999;50.940;3.998;2023-04-08T04:43:06;7.70;99.90
48946;DHT22;34999;50.940;3.998;2023-04-08T04:45:34;7.70;99.90
48946;DHT22;34999;50.940;3.998;2023-04-08T04:48:03;7.60;99.90
48946;DHT22;34999;50.940;3.998;2023-04-08T04:50:31;7.60;99.90
48946;DHT22;34999;50.940;3.998;2023-04-08T04:53:01;7.60;99.90
48946;DHT22;34999;50.940;3.998;2023-04-08T04:55:29;7.60;99.90
48946;DHT22;34999;50.940;3.998;2023-04-08T04:57:57;7.70;99.90
48946;DHT22;34999;50.940;3.998;2023-04-08T05:00:26;7.70;99.90
48946;DHT22;34999;50.940;3.998;2023-04-08T05:02:54;7.60;99.90
48946;DHT22;34999;50.940;3.998;2023-04-08T05:05:22;7.70;99.90
48946;DHT22;34999;50.940;3.998;2023-04-08T05:07:51;7.70;99.90
48946;DHT22;34999;50.940;3.998;2023-04-08T05:10:21;7.70;99.90
48946;DHT22;34999;50.940;3.998;2023-04-08T05:12:49;7.70;99.90
48946;DHT22;34999;50.940;3.998;2023-04-08T05:15:18;7.70;99.90
48946;DHT22;34999;50.940;3.998;2023-04-08T05:17:46;7.70;99.90
48946;DHT22;34999;50.940;3.998;2023-04-08T05:20:14;7.70;99.90
48946;DHT22;34999;50.940;3.998;2023-04-08T05:22:43;7.70;99.90
48946;DHT22;34999;50.940;3.998;2023-04-08T05:25:12;7.70;99.90
48946;DHT22;34999;50.940;3.998;2023-04-08T05:27:41;7.70;99.90
48946;DHT22;34999;50.940;3.998;2023-04-08T05:30:10;7.70;99.90
48946;DHT22;34999;50.940;3.998;2023-04-08T05:32:39;7.70;99.90
48946;DHT22;34999;50.940;3.998;2023-04-08T05:35:08;7.70;99.90
48946;DHT22;34999;50.940;3.998;2023-04-08T05:37:36;7.70;99.90
48946;DHT22;34999;50.940;3.998;2023-04-08T05:40:05;7.70;99.90
48946;DHT22;34999;50.940;3.998;2023-04-08T05:42:34;7.70;99.90
48946;DHT22;34999;50.940;3.998;2023-04-08T05:45:04;7.80;99.90
48946;DHT22;34999;50.940;3.998;2023-04-08T05:47:33;7.80;99.90
48946;DHT22;34999;50.940;3.998;2023-04-08T05:50:01;7.80;99.90
48946;DHT22;34999;50.940;3.998;2023-04-08T05:52:29;7.80;99.90
48946;DHT22;34999;50.940;3.998;2023-04-08T05:54:57;7.80;99.90
48946;DHT22;34999;50.940;3.998;2023-04-08T05:57:26;7.80;99.90
48946;DHT22;34999;50.940;3.998;2023-04-08T05:59:54;7.80;99.90
48946;DHT22;34999;50.940;3.998;2023-04-08T06:02:24;7.80;99.90
48946;DHT22;34999;50.940;3.998;2023-04-08T06:04:52;7.90;99.90
48946;DHT22;34999;50.940;3.998;2023-04-08T06:07:21;7.90;99.90
48946;DHT22;34999;50.940;3.998;2023-04-08T06:09:49;7.90;99.90
48946;DHT22;34999;50.940;3.998;2023-04-08T06:12:17;7.90;99.90
48946;DHT22;34999;50.940;3.998;2023-04-08T06:14:46;7.90;99.90
48946;DHT22;34999;50.940;3.998;2023-04-08T06:17:14;7.90;99.90
48946;DHT22;34999;50.940;3.998;2023-04-08T06:19:43;8.00;99.90
48946;DHT22;34999;50.940;3.998;2023-04-08T06:22:11;8.00;99.90
48946;DHT22;34999;50.940;3.998;2023-04-08T06:24:40;8.00;99.90
48946;DHT22;34999;50.940;3.998;2023-04-08T06:27:08;8.00;99.90
48946;DHT22;34999;50.940;3.998;2023-04-08T06:29:36;8.00;99.90
48946;DHT22;34999;50.940;3.998;2023-04-08T06:32:06;8.10;99.90
48946;DHT22;34999;50.940;3.998;2023-04-08T06:34:35;8.10;99.90
48946;DHT22;34999;50.940;3.998;2023-04-08T06:37:04;8.10;99.90
48946;DHT22;34999;50.940;3.998;2023-04-08T06:39:33;8.10;99.90
48946;DHT22;34999;50.940;3.998;2023-04-08T06:42:01;8.20;99.90
48946;DHT22;34999;50.940;3.998;2023-04-08T06:44:29;8.20;99.90
48946;DHT22;34999;50.940;3.998;2023-04-08T06:46:57;8.20;99.90
48946;DHT22;34999;50.940;3.998;2023-04-08T06:49:26;8.30;99.90
48946;DHT22;34999;50.940;3.998;2023-04-08T06:51:54;8.30;99.90
48946;DHT22;34999;50.940;3.998;2023-04-08T06:54:24;8.30;99.90
48946;DHT22;34999;50.940;3.998;2023-04-08T06:56:52;8.30;99.90
48946;DHT22;34999;50.940;3.998;2023-04-08T06:59:21;8.40;99.90
48946;DHT22;34999;50.940;3.998;2023-04-08T07:01:49;8.40;99.90
48946;DHT22;34999;50.940;3.998;2023-04-08T07:04:17;8.40;99.90
48946;DHT22;34999;50.940;3.998;2023-04-08T07:06:47;8.50;99.90
48946;DHT22;34999;50.940;3.998;2023-04-08T07:09:15;8.50;99.90
48946;DHT22;34999;50.940;3.998;2023-04-08T07:11:44;8.50;99.90
48946;DHT22;34999;50.940;3.998;2023-04-08T07:14:13;8.60;99.90
48946;DHT22;34999;50.940;3.998;2023-04-08T07:16:41;8.60;99.90
48946;DHT22;34999;50.940;3.998;2023-04-08T07:19:09;8.70;99.90
48946;DHT22;34999;50.940;3.998;2023-04-08T07:21:37;8.80;99.90
48946;DHT22;34999;50.940;3.998;2023-04-08T07:24:06;8.90;99.90
48946;DHT22;34999;50.940;3.998;2023-04-08T07:26:34;8.90;99.90
48946;DHT22;34999;50.940;3.998;2023-04-08T07:29:03;9.10;99.90
48946;DHT22;34999;50.940;3.998;2023-04-08T07:31:32;9.40;99.90
48946;DHT22;34999;50.940;3.998;2023-04-08T07:34:00;9.80;99.90
48946;DHT22;34999;50.940;3.998;2023-04-08T07:36:28;10.50;99.90
48946;DHT22;34999;50.940;3.998;2023-04-08T07:38:56;11.40;99.90
48946;DHT22;34999;50.940;3.998;2023-04-08T07:41:25;12.20;99.90
48946;DHT22;34999;50.940;3.998;2023-04-08T07:43:53;13.00;99.90
48946;DHT22;34999;50.940;3.998;2023-04-08T07:46:23;13.50;99.90
48946;DHT22;34999;50.940;3.998;2023-04-08T07:48:51;13.90;99.90
48946;DHT22;34999;50.940;3.998;2023-04-08T07:51:19;14.50;99.90
48946;DHT22;34999;50.940;3.998;2023-04-08T07:53:47;14.90;99.90
48946;DHT22;34999;50.940;3.998;2023-04-08T07:56:16;15.00;99.90
48946;DHT22;34999;50.940;3.998;2023-04-08T07:58:45;15.10;99.90
48946;DHT22;34999;50.940;3.998;2023-04-08T08:01:18;15.20;99.90
48946;DHT22;34999;50.940;3.998;2023-04-08T08:03:50;14.80;99.90
48946;DHT22;34999;50.940;3.998;2023-04-08T08:06:20;14.30;99.90
48946;DHT22;34999;50.940;3.998;2023-04-08T08:08:48;13.90;99.90
48946;DHT22;34999;50.940;3.998;2023-04-08T08:11:16;13.40;99.90
48946;DHT22;34999;50.940;3.998;2023-04-08T08:13:44;13.10;99.90
48946;DHT22;34999;50.940;3.998;2023-04-08T08:16:12;12.90;99.90
48946;DHT22;34999;50.940;3.998;2023-04-08T08:18:41;12.60;99.90
48946;DHT22;34999;50.940;3.998;2023-04-08T08:21:11;12.50;99.90
48946;DHT22;34999;50.940;3.998;2023-04-08T08:23:39;12.40;99.90
48946;DHT22;34999;50.940;3.998;2023-04-08T08:26:08;12.50;99.90
48946;DHT22;34999;50.940;3.998;2023-04-08T08:28:37;12.60;99.90
48946;DHT22;34999;50.940;3.998;2023-04-08T08:31:06;12.70;99.90
48946;DHT22;34999;50.940;3.998;2023-04-08T08:33:34;12.60;99.90
48946;DHT22;34999;50.940;3.998;2023-04-08T08:36:03;12.40;99.90
48946;DHT22;34999;50.940;3.998;2023-04-08T08:38:34;12.30;99.90
48946;DHT22;34999;50.940;3.998;2023-04-08T08:41:02;12.20;99.90
48946;DHT22;34999;50.940;3.998;2023-04-08T08:43:31;12.20;99.90
48946;DHT22;34999;50.940;3.998;2023-04-08T08:46:00;12.20;99.90
48946;DHT22;34999;50.940;3.998;2023-04-08T08:48:29;12.20;99.90
48946;DHT22;34999;50.940;3.998;2023-04-08T08:50:59;12.20;99.90
48946;DHT22;34999;50.940;3.998;2023-04-08T08:53:29;12.20;99.90
48946;DHT22;34999;50.940;3.998;2023-04-08T08:56:03;12.20;99.90
48946;DHT22;34999;50.940;3.998;2023-04-08T08:58:44;12.10;99.90
48946;DHT22;34999;50.940;3.998;2023-04-08T09:01:33;12.00;99.90
48946;DHT22;34999;50.940;3.998;2023-04-08T09:04:17;12.00;99.90
48946;DHT22;34999;50.940;3.998;2023-04-08T09:06:47;12.00;99.90
48946;DHT22;34999;50.940;3.998;2023-04-08T09:09:17;12.00;99.90
48946;DHT22;34999;50.940;3.998;2023-04-08T09:11:46;12.00;99.90
48946;DHT22;34999;50.940;3.998;2023-04-08T09:14:21;12.00;99.90
48946;DHT22;34999;50.940;3.998;2023-04-08T09:16:50;12.00;99.90
48946;DHT22;34999;50.940;3.998;2023-04-08T09:19:19;11.90;99.90
48946;DHT22;34999;50.940;3.998;2023-04-08T09:22:05;11.90;99.90
48946;DHT22;34999;50.940;3.998;2023-04-08T09:24:34;11.70;99.90
48946;DHT22;34999;50.940;3.998;2023-04-08T09:27:05;11.50;99.90
48946;DHT22;34999;50.940;3.998;2023-04-08T09:29:33;11.50;99.90
48946;DHT22;34999;50.940;3.998;2023-04-08T09:32:05;11.60;99.90
48946;DHT22;34999;50.940;3.998;2023-04-08T09:34:34;11.50;99.90
48946;DHT22;34999;50.940;3.998;2023-04-08T09:37:02;11.50;99.90
48946;DHT22;34999;50.940;3.998;2023-04-08T09:39:30;11.50;99.90
48946;DHT22;34999;50.940;3.998;2023-04-08T09:41:59;11.60;99.90
48946;DHT22;34999;50.940;3.998;2023-04-08T09:44:32;11.70;99.90
48946;DHT22;34999;50.940;3.998;2023-04-08T09:47:09;11.80;99.90
48946;DHT22;34999;50.940;3.998;2023-04-08T09:49:45;11.90;99.90
48946;DHT22;34999;50.940;3.998;2023-04-08T09:52:20;11.90;99.90
48946;DHT22;34999;50.940;3.998;2023-04-08T09:54:53;12.00;99.90
48946;DHT22;34999;50.940;3.998;2023-04-08T09:57:30;12.10;99.90
48946;DHT22;34999;50.940;3.998;2023-04-08T10:00:04;12.10;99.90
48946;DHT22;34999;50.940;3.998;2023-04-08T10:02:39;12.00;99.90
48946;DHT22;34999;50.940;3.998;2023-04-08T10:05:12;11.90;99.90
48946;DHT22;34999;50.940;3.998;2023-04-08T10:07:43;12.00;99.90
48946;DHT22;34999;50.940;3.998;2023-04-08T10:10:12;12.10;99.90
48946;DHT22;34999;50.940;3.998;2023-04-08T10:12:40;12.20;99.90
48946;DHT22;34999;50.940;3.998;2023-04-08T10:15:26;12.00;99.90
48946;DHT22;34999;50.940;3.998;2023-04-08T10:17:55;11.90;99.90
48946;DHT22;34999;50.940;3.998;2023-04-08T10:20:43;11.90;99.90
48946;DHT22;34999;50.940;3.998;2023-04-08T10:23:12;12.00;99.90
48946;DHT22;34999;50.940;3.998;2023-04-08T10:25:41;12.00;99.90
48946;DHT22;34999;50.940;3.998;2023-04-08T10:28:24;12.00;99.90
48946;DHT22;34999;50.940;3.998;2023-04-08T10:30:55;12.00;99.90
48946;DHT22;34999;50.940;3.998;2023-04-08T10:33:30;12.00;99.90
48946;DHT22;34999;50.940;3.998;2023-04-08T10:36:08;12.20;99.90
48946;DHT22;34999;50.940;3.998;2023-04-08T10:38:37;12.20;99.90
48946;DHT22;34999;50.940;3.998;2023-04-08T10:41:05;12.30;99.90
48946;DHT22;34999;50.940;3.998;2023-04-08T10:43:34;12.20;99.90
48946;DHT22;34999;50.940;3.998;2023-04-08T10:46:04;12.20;99.90
48946;DHT22;34999;50.940;3.998;2023-04-08T10:48:32;12.20;99.90
48946;DHT22;34999;50.940;3.998;2023-04-08T10:51:02;12.40;99.90
48946;DHT22;34999;50.940;3.998;2023-04-08T10:53:31;12.30;99.90
48946;DHT22;34999;50.940;3.998;2023-04-08T10:56:06;12.10;99.90
48946;DHT22;34999;50.940;3.998;2023-04-08T10:58:34;12.30;99.90
48946;DHT22;34999;50.940;3.998;2023-04-08T11:01:05;12.30;99.90
48946;DHT22;34999;50.940;3.998;2023-04-08T11:03:34;12.10;99.90
48946;DHT22;34999;50.940;3.998;2023-04-08T11:06:04;11.90;99.90
48946;DHT22;34999;50.940;3.998;2023-04-08T11:08:34;12.10;99.90
48946;DHT22;34999;50.940;3.998;2023-04-08T11:11:04;12.30;99.90
48946;DHT22;34999;50.940;3.998;2023-04-08T11:13:35;12.50;99.90
48946;DHT22;34999;50.940;3.998;2023-04-08T11:16:06;12.80;99.90
48946;DHT22;34999;50.940;3.998;2023-04-08T11:18:44;12.50;99.90
48946;DHT22;34999;50.940;3.998;2023-04-08T11:21:14;12.40;99.90
48946;DHT22;34999;50.940;3.998;2023-04-08T11:23:43;12.60;99.90
48946;DHT22;34999;50.940;3.998;2023-04-08T11:26:11;12.70;99.90
48946;DHT22;34999;50.940;3.998;2023-04-08T11:28:40;12.50;99.90
48946;DHT22;34999;50.940;3.998;2023-04-08T11:31:10;12.40;99.90
48946;DHT22;34999;50.940;3.998;2023-04-08T11:33:46;12.40;99.90
48946;DHT22;34999;50.940;3.998;2023-04-08T11:36:17;12.60;99.90
48946;DHT22;34999;50.940;3.998;2023-04-08T11:38:45;12.70;99.90
48946;DHT22;34999;50.940;3.998;2023-04-08T11:41:14;12.80;99.90
48946;DHT22;34999;50.940;3.998;2023-04-08T11:43:53;13.00;99.90
48946;DHT22;34999;50.940;3.998;2023-04-08T11:46:23;13.10;99.90
48946;DHT22;34999;50.940;3.998;2023-04-08T11:48:59;13.30;99.90
48946;DHT22;34999;50.940;3.998;2023-04-08T11:51:28;13.40;99.90
48946;DHT22;34999;50.940;3.998;2023-04-08T11:53:56;13.70;99.90
48946;DHT22;34999;50.940;3.998;2023-04-08T11:56:25;13.90;99.90
48946;DHT22;34999;50.940;3.998;2023-04-08T11:58:56;14.10;99.90
48946;DHT22;34999;50.940;3.998;2023-04-08T12:01:26;14.30;99.90
48946;DHT22;34999;50.940;3.998;2023-04-08T12:03:58;14.50;99.90
48946;DHT22;34999;50.940;3.998;2023-04-08T12:06:28;14.60;99.90
48946;DHT22;34999;50.940;3.998;2023-04-08T12:08:57;14.90;99.90
48946;DHT22;34999;50.940;3.998;2023-04-08T12:11:25;15.10;99.90
48946;DHT22;34999;50.940;3.998;2023-04-08T12:13:54;15.20;99.90
48946;DHT22;34999;50.940;3.998;2023-04-08T12:16:22;15.30;99.90
48946;DHT22;34999;50.940;3.998;2023-04-08T12:18:52;15.30;99.90
48946;DHT22;34999;50.940;3.998;2023-04-08T12:21:20;14.90;99.90
48946;DHT22;34999;50.940;3.998;2023-04-08T12:23:49;14.80;99.90
48946;DHT22;34999;50.940;3.998;2023-04-08T12:26:18;14.70;99.90
48946;DHT22;34999;50.940;3.998;2023-04-08T12:28:46;14.60;99.90
48946;DHT22;34999;50.940;3.998;2023-04-08T12:31:15;14.10;99.90
48946;DHT22;34999;50.940;3.998;2023-04-08T12:33:43;14.20;99.90
48946;DHT22;34999;50.940;3.998;2023-04-08T12:36:13;14.30;99.90
48946;DHT22;34999;50.940;3.998;2023-04-08T12:38:41;14.50;99.90
48946;DHT22;34999;50.940;3.998;2023-04-08T12:41:09;14.80;99.90
48946;DHT22;34999;50.940;3.998;2023-04-08T12:43:37;15.00;99.90
48946;DHT22;34999;50.940;3.998;2023-04-08T12:46:06;14.90;99.90
48946;DHT22;34999;50.940;3.998;2023-04-08T12:48:34;15.00;99.90
48946;DHT22;34999;50.940;3.998;2023-04-08T12:51:03;15.40;99.90
48946;DHT22;34999;50.940;3.998;2023-04-08T12:53:32;15.70;99.90
48946;DHT22;34999;50.940;3.998;2023-04-08T12:56:01;16.00;99.90
48946;DHT22;34999;50.940;3.998;2023-04-08T12:58:29;16.10;99.90
48946;DHT22;34999;50.940;3.998;2023-04-08T13:00:57;16.00;99.90
48946;DHT22;34999;50.940;3.998;2023-04-08T13:03:25;15.70;99.90
48946;DHT22;34999;50.940;3.998;2023-04-08T13:05:56;15.90;99.90
48946;DHT22;34999;50.940;3.998;2023-04-08T13:08:25;15.90;99.90
48946;DHT22;34999;50.940;3.998;2023-04-08T13:10:54;16.00;99.90
48946;DHT22;34999;50.940;3.998;2023-04-08T13:13:22;15.80;99.90
48946;DHT22;34999;50.940;3.998;2023-04-08T13:15:51;15.90;99.90
48946;DHT22;34999;50.940;3.998;2023-04-08T13:18:19;16.20;99.90
48946;DHT22;34999;50.940;3.998;2023-04-08T13:20:47;16.20;99.90
48946;DHT22;34999;50.940;3.998;2023-04-08T13:23:16;16.20;99.90
48946;DHT22;34999;50.940;3.998;2023-04-08T13:25:44;16.10;99.90
48946;DHT22;34999;50.940;3.998;2023-04-08T13:28:14;16.00;99.90
48946;DHT22;34999;50.940;3.998;2023-04-08T13:30:42;16.00;99.90
48946;DHT22;34999;50.940;3.998;2023-04-08T13:33:10;15.70;99.90
48946;DHT22;34999;50.940;3.998;2023-04-08T13:35:38;15.50;99.90
48946;DHT22;34999;50.940;3.998;2023-04-08T13:38:06;15.20;99.90
48946;DHT22;34999;50.940;3.998;2023-04-08T13:40:35;15.40;99.90
48946;DHT22;34999;50.940;3.998;2023-04-08T13:43:03;15.00;99.90
48946;DHT22;34999;50.940;3.998;2023-04-08T13:45:32;15.00;99.90
48946;DHT22;34999;50.940;3.998;2023-04-08T13:48:01;15.20;99.90
48946;DHT22;34999;50.940;3.998;2023-04-08T13:50:30;15.30;99.90
48946;DHT22;34999;50.940;3.998;2023-04-08T13:52:58;15.60;99.90
48946;DHT22;34999;50.940;3.998;2023-04-08T13:55:27;15.80;99.90
48946;DHT22;34999;50.940;3.998;2023-04-08T13:57:55;16.00;99.90
48946;DHT22;34999;50.940;3.998;2023-04-08T14:00:23;15.90;99.90
48946;DHT22;34999;50.940;3.998;2023-04-08T14:02:53;15.90;99.90
48946;DHT22;34999;50.940;3.998;2023-04-08T14:05:22;16.10;99.90
48946;DHT22;34999;50.940;3.998;2023-04-08T14:07:50;16.30;99.90
48946;DHT22;34999;50.940;3.998;2023-04-08T14:10:18;16.60;99.90
48946;DHT22;34999;50.940;3.998;2023-04-08T14:12:46;17.00;99.90
48946;DHT22;34999;50.940;3.998;2023-04-08T14:15:15;17.30;99.90
48946;DHT22;34999;50.940;3.998;2023-04-08T14:17:43;17.30;99.90
48946;DHT22;34999;50.940;3.998;2023-04-08T14:20:13;17.30;99.90
48946;DHT22;34999;50.940;3.998;2023-04-08T14:22:41;16.90;99.90
48946;DHT22;34999;50.940;3.998;2023-04-08T14:25:09;16.80;99.90
48946;DHT22;34999;50.940;3.998;2023-04-08T14:27:38;16.70;99.90
48946;DHT22;34999;50.940;3.998;2023-04-08T14:30:23;16.60;99.90
48946;DHT22;34999;50.940;3.998;2023-04-08T14:32:53;16.80;99.90
48946;DHT22;34999;50.940;3.998;2023-04-08T14:35:22;17.00;99.90
48946;DHT22;34999;50.940;3.998;2023-04-08T14:37:51;17.20;99.90
48946;DHT22;34999;50.940;3.998;2023-04-08T14:40:19;17.40;99.90
48946;DHT22;34999;50.940;3.998;2023-04-08T14:42:47;17.50;99.90
48946;DHT22;34999;50.940;3.998;2023-04-08T14:45:16;17.80;99.90
48946;DHT22;34999;50.940;3.998;2023-04-08T14:47:45;18.00;99.90
48946;DHT22;34999;50.940;3.998;2023-04-08T14:50:13;18.20;99.90
48946;DHT22;34999;50.940;3.998;2023-04-08T14:52:43;18.50;99.90
48946;DHT22;34999;50.940;3.998;2023-04-08T14:55:14;18.60;99.90
48946;DHT22;34999;50.940;3.998;2023-04-08T14:57:42;18.50;99.90
48946;DHT22;34999;50.940;3.998;2023-04-08T15:00:11;18.80;99.90
48946;DHT22;34999;50.940;3.998;2023-04-08T15:02:40;18.90;99.90
48946;DHT22;34999;50.940;3.998;2023-04-08T15:05:08;18.50;99.90
48946;DHT22;34999;50.940;3.998;2023-04-08T15:07:36;18.50;99.90
48946;DHT22;34999;50.940;3.998;2023-04-08T15:10:07;18.50;99.90
48946;DHT22;34999;50.940;3.998;2023-04-08T15:12:35;18.10;99.90
48946;DHT22;34999;50.940;3.998;2023-04-08T15:15:04;17.60;99.90
48946;DHT22;34999;50.940;3.998;2023-04-08T15:17:33;17.30;99.90
48946;DHT22;34999;50.940;3.998;2023-04-08T15:20:01;17.20;99.90
48946;DHT22;34999;50.940;3.998;2023-04-08T15:22:29;17.30;99.90
48946;DHT22;34999;50.940;3.998;2023-04-08T15:24:58;17.30;99.90
48946;DHT22;34999;50.940;3.998;2023-04-08T15:27:28;17.40;99.90
48946;DHT22;34999;50.940;3.998;2023-04-08T15:29:56;17.60;99.90
48946;DHT22;34999;50.940;3.998;2023-04-08T15:32:25;17.50;99.90
48946;DHT22;34999;50.940;3.998;2023-04-08T15:34:53;17.30;99.90
48946;DHT22;34999;50.940;3.998;2023-04-08T15:37:21;16.80;99.90
48946;DHT22;34999;50.940;3.998;2023-04-08T15:39:51;16.60;99.90
48946;DHT22;34999;50.940;3.998;2023-04-08T15:42:19;16.40;99.90
48946;DHT22;34999;50.940;3.998;2023-04-08T15:44:49;16.20;99.90
48946;DHT22;34999;50.940;3.998;2023-04-08T15:47:17;15.90;99.90
48946;DHT22;34999;50.940;3.998;2023-04-08T15:49:46;15.70;99.90
48946;DHT22;34999;50.940;3.998;2023-04-08T15:52:14;15.50;99.90